createdAt,value
2022-08-22T00:00:32.307Z,25.81
2022-08-22T00:03:01.687Z,27.15
2022-08-22T00:03:15.778Z,25.64
2022-08-22T00:05:29.873Z,25.83
2022-08-22T00:07:53.720Z,25.77
2022-08-22T00:09:58.265Z,25.08
2022-08-22T00:12:23.146Z,25.59
2022-08-22T00:14:35.077Z,25.73
2022-08-22T00:16:58.808Z,25.74
2022-08-22T00:19:19.328Z,24.54
2022-08-22T00:21:52.403Z,24.23
2022-08-22T00:24:14.992Z,25.40
2022-08-22T00:26:35.708Z,25.59
2022-08-22T00:29:01.361Z,25.39
2022-08-22T00:31:21.135Z,25.50
2022-08-22T00:33:39.092Z,25.41
2022-08-22T00:35:49.852Z,25.57
2022-08-22T00:38:13.259Z,25.50
2022-08-22T00:40:35.890Z,25.20
2022-08-22T00:43:09.631Z,24.86
2022-08-22T00:45:17.742Z,25.22
2022-08-22T00:47:53.079Z,25.46
2022-08-22T00:50:09.693Z,25.31
2022-08-22T00:52:23.404Z,25.24
2022-08-22T00:54:40.183Z,25.33
2022-08-22T00:56:45.175Z,25.29
2022-08-22T00:59:22.895Z,25.37
2022-08-22T01:01:35.802Z,25.51
2022-08-22T01:03:48.915Z,24.76
2022-08-22T01:06:15.142Z,25.28
2022-08-22T01:08:40.277Z,25.05
2022-08-22T01:10:54.682Z,24.44
2022-08-22T01:13:15.188Z,24.64
2022-08-22T01:15:24.725Z,24.84
2022-08-22T01:17:47.775Z,24.65
2022-08-22T01:20:27.356Z,24.78
2022-08-22T01:22:44.052Z,24.63
2022-08-22T01:25:18.432Z,24.92
2022-08-22T01:28:02.928Z,24.93
2022-08-22T01:30:18.176Z,25.21
2022-08-22T01:33:09.739Z,25.12
2022-08-22T01:35:28.821Z,25.08
2022-08-22T01:37:58.361Z,25.10
2022-08-22T01:40:00.500Z,25.20
2022-08-22T01:42:31.783Z,25.44
2022-08-22T01:44:54.380Z,25.13
2022-08-22T01:47:14.424Z,24.97
2022-08-22T01:49:20.795Z,25.30
2022-08-22T01:51:27.180Z,24.78
2022-08-22T01:53:42.819Z,24.86
2022-08-22T01:56:15.225Z,24.79
2022-08-22T01:58:21.079Z,24.83
2022-08-22T02:00:35.450Z,24.79
2022-08-22T02:02:56.196Z,25.18
2022-08-22T02:05:06.760Z,24.88
2022-08-22T02:07:21.004Z,25.01
2022-08-22T02:09:46.565Z,24.74
2022-08-22T02:11:58.876Z,24.43
2022-08-22T02:14:13.774Z,24.17
2022-08-22T02:16:38.782Z,24.31
2022-08-22T02:18:54.217Z,24.10
2022-08-22T02:21:10.324Z,24.00
2022-08-22T02:23:23.996Z,24.12
2022-08-22T02:25:32.536Z,24.23
2022-08-22T02:27:43.677Z,24.36
2022-08-22T02:29:50.453Z,24.05
2022-08-22T02:32:05.896Z,23.70
2022-08-22T02:34:39.982Z,23.44
2022-08-22T02:36:50.457Z,23.88
2022-08-22T02:38:59.644Z,24.00
2022-08-22T02:41:18.013Z,24.12
2022-08-22T02:43:28.383Z,23.90
2022-08-22T02:45:53.564Z,24.52
2022-08-22T02:48:10.724Z,24.44
2022-08-22T02:50:41.453Z,24.50
2022-08-22T02:53:21.223Z,24.44
2022-08-22T02:55:47.039Z,24.12
2022-08-22T02:58:00.929Z,24.64
2022-08-22T03:00:31.353Z,24.80
2022-08-22T03:02:46.763Z,24.93
2022-08-22T03:04:54.332Z,24.32
2022-08-22T03:07:20.979Z,24.62
2022-08-22T03:09:29.806Z,24.80
2022-08-22T03:11:40.132Z,25.09
2022-08-22T03:14:01.596Z,25.26
2022-08-22T03:16:29.128Z,25.19
2022-08-22T03:18:41.401Z,24.77
2022-08-22T03:20:55.661Z,24.73
2022-08-22T03:23:06.082Z,24.62
2022-08-22T03:25:20.033Z,24.41
2022-08-22T03:27:41.863Z,24.57
2022-08-22T03:29:50.042Z,24.71
2022-08-22T03:32:08.585Z,24.82
2022-08-22T03:34:26.699Z,24.49
2022-08-22T03:36:29.768Z,24.34
2022-08-22T03:38:34.464Z,24.50
2022-08-22T03:40:55.741Z,24.00
2022-08-22T03:43:08.469Z,24.31
2022-08-22T03:45:43.030Z,24.25
2022-08-22T03:48:07.918Z,24.12
2022-08-22T03:50:27.641Z,23.75
2022-08-22T03:53:06.184Z,23.75
2022-08-22T03:55:39.942Z,23.85
2022-08-22T03:58:01.978Z,23.51
2022-08-22T04:00:39.625Z,23.22
2022-08-22T04:03:18.161Z,23.27
2022-08-22T04:05:28.765Z,23.09
2022-08-22T04:07:43.104Z,23.24
2022-08-22T04:10:07.274Z,22.89
2022-08-22T04:12:24.363Z,22.75
2022-08-22T04:14:49.997Z,23.26
2022-08-22T04:17:20.393Z,23.16
2022-08-22T04:19:46.839Z,23.42
2022-08-22T04:21:55.021Z,23.14
2022-08-22T04:24:20.548Z,23.24
2022-08-22T04:26:56.368Z,23.45
2022-08-22T04:29:14.854Z,23.64
2022-08-22T04:31:24.936Z,23.55
2022-08-22T04:33:33.418Z,23.48
2022-08-22T04:36:16.229Z,23.14
2022-08-22T04:38:17.749Z,23.68
2022-08-22T04:40:43.549Z,23.62
2022-08-22T04:42:59.134Z,23.46
2022-08-22T04:45:16.768Z,22.86
2022-08-22T04:47:32.574Z,23.58
2022-08-22T04:49:46.686Z,23.10
2022-08-22T04:51:55.206Z,22.34
2022-08-22T04:54:30.890Z,22.96
2022-08-22T04:56:50.944Z,23.49
2022-08-22T04:59:03.472Z,23.02
2022-08-22T05:01:17.194Z,22.49
2022-08-22T05:03:23.348Z,23.17
2022-08-22T05:05:37.919Z,22.89
2022-08-22T05:07:46.126Z,23.15
2022-08-22T05:09:52.740Z,22.90
2022-08-22T05:12:00.289Z,23.03
2022-08-22T05:14:07.268Z,22.89
2022-08-22T05:16:15.970Z,23.28
2022-08-22T05:18:23.917Z,23.17
2022-08-22T05:20:31.548Z,22.50
2022-08-22T05:22:40.094Z,23.16
2022-08-22T05:24:48.731Z,23.57
2022-08-22T05:26:55.921Z,23.22
2022-08-22T05:29:02.888Z,23.06
2022-08-22T05:31:12.333Z,23.29
2022-08-22T05:33:18.646Z,22.78
2022-08-22T05:35:33.638Z,23.31
2022-08-22T05:37:53.325Z,22.83
2022-08-22T05:39:58.850Z,22.69
2022-08-22T05:42:03.312Z,23.34
2022-08-22T05:44:13.296Z,23.43
2022-08-22T05:46:26.936Z,23.72
2022-08-22T05:48:42.161Z,23.62
2022-08-22T05:50:52.081Z,23.77
2022-08-22T05:53:15.543Z,23.76
2022-08-22T05:55:44.617Z,23.97
2022-08-22T05:57:52.403Z,23.53
2022-08-22T06:00:04.164Z,23.31
2022-08-22T06:02:05.769Z,23.29
2022-08-22T06:04:41.916Z,23.84
2022-08-22T06:06:56.452Z,22.77
2022-08-22T06:09:08.578Z,22.96
2022-08-22T06:11:26.852Z,22.34
2022-08-22T06:13:43.480Z,22.39
2022-08-22T06:15:56.103Z,22.44
2022-08-22T06:18:03.429Z,22.78
2022-08-22T06:20:12.236Z,22.92
2022-08-22T06:22:32.124Z,22.63
2022-08-22T06:24:37.735Z,22.18
2022-08-22T06:26:48.546Z,21.82
2022-08-22T06:28:56.104Z,23.03
2022-08-22T06:30:59.135Z,22.67
2022-08-22T06:33:06.800Z,22.44
2022-08-22T06:35:28.062Z,23.23
2022-08-22T06:37:38.783Z,23.57
2022-08-22T06:39:45.021Z,23.46
2022-08-22T06:42:16.273Z,23.09
2022-08-22T06:44:24.154Z,23.31
2022-08-22T06:46:29.260Z,23.24
2022-08-22T06:48:34.836Z,23.42
2022-08-22T06:50:43.034Z,23.32
2022-08-22T06:53:19.084Z,23.72
2022-08-22T06:55:22.933Z,23.80
2022-08-22T06:57:30.181Z,23.32
2022-08-22T06:59:37.436Z,23.27
2022-08-22T07:01:46.664Z,24.09
2022-08-22T07:03:54.332Z,24.60
2022-08-22T07:05:56.956Z,24.00
2022-08-22T07:07:58.812Z,24.18
2022-08-22T07:10:00.850Z,24.08
2022-08-22T07:12:24.354Z,23.80
2022-08-22T07:14:30.190Z,23.92
2022-08-22T07:16:44.797Z,24.31
2022-08-22T07:18:50.219Z,24.09
2022-08-22T07:20:59.417Z,24.41
2022-08-22T07:23:09.648Z,24.55
2022-08-22T07:25:16.132Z,24.91
2022-08-22T07:27:42.880Z,24.94
2022-08-22T07:30:09.959Z,23.90
2022-08-22T07:32:16.261Z,24.46
2022-08-22T07:34:48.877Z,24.94
2022-08-22T07:36:55.482Z,24.77
2022-08-22T07:39:21.543Z,24.58
2022-08-22T07:41:32.755Z,25.33
2022-08-22T07:43:37.129Z,25.69
2022-08-22T07:45:53.861Z,24.83
2022-08-22T07:48:22.650Z,25.37
2022-08-22T07:50:32.005Z,25.34
2022-08-22T07:52:41.978Z,25.30
2022-08-22T07:55:42.237Z,25.97
2022-08-22T07:58:00.654Z,25.71
2022-08-22T08:00:11.599Z,25.70
2022-08-22T08:02:15.987Z,26.23
2022-08-22T08:04:24.715Z,26.13
2022-08-22T08:06:28.183Z,25.75
2022-08-22T08:08:43.948Z,25.56
2022-08-22T08:10:48.788Z,26.38
2022-08-22T08:13:01.861Z,26.21
2022-08-22T08:15:08.869Z,26.13
2022-08-22T08:17:22.364Z,26.27
2022-08-22T08:19:25.463Z,26.48
2022-08-22T08:21:40.496Z,26.60
2022-08-22T08:23:46.578Z,26.69
2022-08-22T08:25:57.602Z,26.38
2022-08-22T08:28:18.730Z,25.90
2022-08-22T08:30:41.440Z,26.01
2022-08-22T08:32:48.012Z,25.14
2022-08-22T08:34:52.512Z,25.21
2022-08-22T08:37:04.812Z,26.07
2022-08-22T08:39:35.794Z,26.56
2022-08-22T08:41:53.309Z,25.46
2022-08-22T08:44:22.690Z,25.85
2022-08-22T08:46:55.873Z,27.08
2022-08-22T08:49:24.157Z,25.15
2022-08-22T08:51:43.924Z,26.71
2022-08-22T08:54:21.234Z,26.75
2022-08-22T08:56:30.509Z,26.98
2022-08-22T08:58:45.685Z,27.20
2022-08-22T09:01:19.527Z,26.83
2022-08-22T09:03:51.435Z,27.25
2022-08-22T09:06:14.787Z,27.63
2022-08-22T09:08:30.674Z,27.59
2022-08-22T09:10:51.122Z,27.42
2022-08-22T09:13:34.499Z,27.82
2022-08-22T09:15:58.673Z,28.06
2022-08-22T09:18:14.518Z,27.67
2022-08-22T09:20:47.530Z,27.38
2022-08-22T09:23:17.352Z,27.61
2022-08-22T09:25:38.597Z,27.75
2022-08-22T09:28:10.505Z,27.06
2022-08-22T09:30:28.715Z,27.44
2022-08-22T09:32:53.344Z,27.84
2022-08-22T09:35:19.308Z,27.66
2022-08-22T09:37:41.844Z,27.81
2022-08-22T09:42:45.006Z,27.04
2022-08-22T09:45:19.163Z,27.27
2022-08-22T09:47:33.818Z,27.47
2022-08-22T09:50:05.880Z,28.41
2022-08-22T09:52:33.996Z,28.96
2022-08-22T09:54:48.286Z,28.61
2022-08-22T09:57:01.887Z,28.39
2022-08-22T09:59:09.805Z,28.87
2022-08-22T10:01:48.633Z,28.66
2022-08-22T10:04:19.797Z,29.19
2022-08-22T10:06:31.455Z,28.34
2022-08-22T10:08:47.096Z,28.68
2022-08-22T10:10:54.785Z,28.25
2022-08-22T10:13:15.048Z,28.65
2022-08-22T10:15:42.113Z,29.02
2022-08-22T10:18:11.036Z,28.94
2022-08-22T10:20:23.210Z,28.92
2022-08-22T10:22:39.903Z,29.36
2022-08-22T10:24:50.273Z,29.44
2022-08-22T10:26:56.529Z,29.79
2022-08-22T10:29:19.668Z,29.44
2022-08-22T10:31:29.918Z,29.33
2022-08-22T10:33:36.437Z,29.55
2022-08-22T10:35:55.398Z,29.85
2022-08-22T10:38:02.810Z,30.10
2022-08-22T10:40:08.302Z,29.51
2022-08-22T10:42:28.701Z,29.66
2022-08-22T10:45:08.767Z,29.87
2022-08-22T10:47:20.807Z,29.95
2022-08-22T10:49:40.518Z,29.16
2022-08-22T10:51:49.765Z,29.10
2022-08-22T10:53:57.999Z,29.93
2022-08-22T10:56:10.208Z,29.80
2022-08-22T10:58:21.885Z,29.72
2022-08-22T11:03:32.376Z,30.17
2022-08-22T11:05:43.354Z,30.68
2022-08-22T11:08:09.902Z,31.14
2022-08-22T11:10:48.947Z,30.18
2022-08-22T11:13:14.120Z,30.43
2022-08-22T11:15:34.527Z,29.47
2022-08-22T11:18:02.088Z,28.76
2022-08-22T11:20:33.081Z,30.93
2022-08-22T11:22:47.756Z,31.09
2022-08-22T11:25:15.047Z,29.10
2022-08-22T11:28:02.048Z,29.79
2022-08-22T11:30:18.786Z,29.93
2022-08-22T11:32:29.972Z,29.43
2022-08-22T11:34:46.691Z,30.69
2022-08-22T11:37:04.081Z,30.06
2022-08-22T11:39:25.076Z,30.34
2022-08-22T11:41:35.703Z,30.91
2022-08-22T11:43:58.590Z,30.97
2022-08-22T11:46:14.848Z,29.87
2022-08-22T11:48:25.814Z,30.80
2022-08-22T11:50:36.283Z,30.42
2022-08-22T11:53:08.386Z,30.73
2022-08-22T11:55:32.730Z,30.98
2022-08-22T11:57:56.127Z,31.60
2022-08-22T12:00:23.161Z,31.00
2022-08-22T12:03:02.788Z,30.83
2022-08-22T12:05:13.743Z,30.39
2022-08-22T12:07:31.268Z,31.27
2022-08-22T12:09:50.790Z,31.06
2022-08-22T12:12:19.120Z,31.31
2022-08-22T12:14:33.562Z,31.02
2022-08-22T12:16:35.523Z,30.05
2022-08-22T12:18:54.852Z,30.24
2022-08-22T12:21:02.647Z,31.30
2022-08-22T12:23:10.853Z,31.26
2022-08-22T12:25:44.509Z,31.79
2022-08-22T12:28:14.123Z,30.70
2022-08-22T12:30:45.150Z,31.43
2022-08-22T12:32:49.485Z,31.69
2022-08-22T12:35:30.027Z,31.56
2022-08-22T12:37:52.252Z,31.75
2022-08-22T12:40:32.365Z,31.73
2022-08-22T12:43:10.608Z,31.65
2022-08-22T12:45:50.742Z,31.18
2022-08-22T12:48:14.723Z,31.68
2022-08-22T12:50:31.617Z,32.03
2022-08-22T12:52:45.905Z,31.67
2022-08-22T12:55:25.511Z,30.81
2022-08-22T12:57:50.420Z,29.95
2022-08-22T13:00:06.796Z,29.96
2022-08-22T13:02:18.372Z,31.40
2022-08-22T13:04:32.611Z,31.29
2022-08-22T13:06:35.659Z,31.67
2022-08-22T13:08:45.644Z,32.16
2022-08-22T13:10:56.597Z,31.45
2022-08-22T13:12:59.931Z,31.56
2022-08-22T13:15:27.102Z,31.50
2022-08-22T13:17:29.294Z,31.17
2022-08-22T13:19:35.527Z,31.68
2022-08-22T13:21:55.512Z,31.43
2022-08-22T13:24:04.835Z,32.05
2022-08-22T13:26:07.610Z,31.88
2022-08-22T13:28:12.103Z,32.61
2022-08-22T13:30:18.785Z,31.71
2022-08-22T13:32:39.268Z,31.74
2022-08-22T13:34:52.052Z,32.38
2022-08-22T13:36:58.742Z,32.02
2022-08-22T13:39:22.651Z,31.90
2022-08-22T13:41:38.255Z,32.10
2022-08-22T13:44:04.680Z,31.76
2022-08-22T13:46:11.085Z,31.27
2022-08-22T13:48:15.604Z,31.94
2022-08-22T13:50:21.998Z,32.35
2022-08-22T13:52:29.384Z,32.16
2022-08-22T13:54:43.963Z,32.32
2022-08-22T13:57:10.975Z,32.31
2022-08-22T13:59:50.046Z,31.97
2022-08-22T14:02:01.435Z,31.87
2022-08-22T14:04:32.174Z,32.33
2022-08-22T14:06:51.361Z,32.25
2022-08-22T14:08:58.518Z,32.35
2022-08-22T14:11:22.630Z,32.08
2022-08-22T14:13:29.877Z,31.43
2022-08-22T14:15:46.167Z,32.41
2022-08-22T14:17:50.993Z,31.55
2022-08-22T14:20:01.696Z,31.79
2022-08-22T14:22:09.261Z,32.65
2022-08-22T14:24:25.815Z,32.34
2022-08-22T14:26:32.996Z,32.00
2022-08-22T14:28:39.361Z,32.64
2022-08-22T14:30:54.393Z,32.79
2022-08-22T14:33:03.959Z,32.46
2022-08-22T14:35:26.438Z,32.46
2022-08-22T14:37:42.670Z,32.62
2022-08-22T14:39:49.924Z,32.54
2022-08-22T14:42:04.956Z,32.35
2022-08-22T14:44:32.548Z,32.11
2022-08-22T14:46:47.838Z,32.46
2022-08-22T14:49:18.490Z,32.17
2022-08-22T14:51:24.515Z,30.54
2022-08-22T14:53:30.743Z,30.86
2022-08-22T14:55:33.229Z,29.85
2022-08-22T14:57:37.884Z,31.69
2022-08-22T15:02:31.449Z,32.16
2022-08-22T15:04:45.956Z,32.75
2022-08-22T15:06:54.964Z,32.61
2022-08-22T15:08:57.874Z,32.57
2022-08-22T15:11:21.958Z,32.09
2022-08-22T15:13:29.639Z,32.07
2022-08-22T15:15:49.365Z,31.48
2022-08-22T15:17:55.997Z,31.74
2022-08-22T15:20:11.027Z,30.07
2022-08-22T15:22:20.423Z,31.84
2022-08-22T15:24:22.696Z,31.99
2022-08-22T15:26:34.377Z,31.75
2022-08-22T15:28:52.736Z,32.04
2022-08-22T15:30:57.831Z,30.71
2022-08-22T15:33:09.545Z,31.95
2022-08-22T15:35:15.311Z,31.79
2022-08-22T15:37:19.518Z,31.91
2022-08-22T15:39:57.381Z,32.16
2022-08-22T15:42:00.908Z,29.89
2022-08-22T15:44:33.654Z,31.18
2022-08-22T15:46:55.883Z,31.29
2022-08-22T15:49:06.521Z,32.06
2022-08-22T15:51:30.601Z,31.44
2022-08-22T15:53:59.720Z,31.28
2022-08-22T15:56:07.081Z,31.68
2022-08-22T15:58:24.380Z,31.71
2022-08-22T16:00:43.429Z,31.39
2022-08-22T16:03:03.108Z,31.61
2022-08-22T16:05:11.270Z,30.84
2022-08-22T16:07:25.436Z,30.90
2022-08-22T16:09:44.495Z,32.22
2022-08-22T16:11:55.110Z,32.07
2022-08-22T16:14:23.068Z,31.97
2022-08-22T16:16:43.068Z,32.62
2022-08-22T16:18:47.396Z,32.82
2022-08-22T16:20:53.221Z,32.96
2022-08-22T16:22:57.539Z,33.22
2022-08-22T16:25:01.642Z,31.90
2022-08-22T16:27:22.150Z,31.29
2022-08-22T16:29:41.161Z,32.18
2022-08-22T16:31:46.228Z,30.79
2022-08-22T16:33:48.616Z,31.85
2022-08-22T16:36:14.958Z,30.94
2022-08-22T16:38:27.299Z,30.78
2022-08-22T16:40:29.562Z,31.90
2022-08-22T16:42:39.206Z,32.14
2022-08-22T16:44:45.928Z,32.39
2022-08-22T16:46:50.536Z,32.78
2022-08-22T16:49:01.436Z,31.85
2022-08-22T16:51:18.547Z,32.04
2022-08-22T16:53:29.290Z,32.79
2022-08-22T16:55:30.930Z,32.75
2022-08-22T16:58:10.651Z,32.65
2022-08-22T17:00:27.554Z,32.46
2022-08-22T17:02:59.991Z,32.52
2022-08-22T17:05:30.596Z,32.44
2022-08-22T17:07:47.909Z,32.30
2022-08-22T17:10:21.101Z,33.03
2022-08-22T17:12:31.772Z,32.38
2022-08-22T17:14:56.728Z,32.38
2022-08-22T17:17:22.954Z,32.40
2022-08-22T17:19:40.512Z,32.66
2022-08-22T17:21:51.855Z,32.86
2022-08-22T17:24:07.600Z,32.56
2022-08-22T17:26:34.056Z,32.76
2022-08-22T17:28:36.092Z,32.70
2022-08-22T17:31:03.863Z,32.61
2022-08-22T17:33:42.365Z,32.31
2022-08-22T17:36:02.910Z,32.23
2022-08-22T17:38:32.276Z,32.28
2022-08-22T17:40:33.857Z,32.18
2022-08-22T17:42:40.894Z,31.97
2022-08-22T17:45:00.929Z,31.68
2022-08-22T17:47:14.921Z,31.69
2022-08-22T17:49:26.819Z,31.76
2022-08-22T17:51:36.257Z,31.65
2022-08-22T17:53:41.087Z,31.67
2022-08-22T17:56:15.118Z,31.39
2022-08-22T17:58:35.666Z,31.65
2022-08-22T18:00:55.642Z,31.68
2022-08-22T18:03:13.045Z,31.07
2022-08-22T18:05:23.369Z,31.25
2022-08-22T18:07:59.213Z,31.72
2022-08-22T18:10:17.530Z,31.55
2022-08-22T18:12:40.786Z,31.81
2022-08-22T18:15:04.008Z,31.75
2022-08-22T18:17:30.060Z,31.61
2022-08-22T18:19:50.138Z,31.77
2022-08-22T18:21:58.819Z,31.10
2022-08-22T18:24:24.348Z,31.26
2022-08-22T18:26:38.009Z,31.00
2022-08-22T18:28:48.949Z,31.45
2022-08-22T18:31:06.973Z,31.65
2022-08-22T18:33:19.892Z,31.23
2022-08-22T18:35:32.213Z,31.53
2022-08-22T18:37:33.761Z,31.30
2022-08-22T18:39:44.446Z,31.50
2022-08-22T18:41:53.864Z,31.72
2022-08-22T18:43:59.180Z,31.25
2022-08-22T18:46:04.349Z,31.34
2022-08-22T18:48:07.161Z,31.58
2022-08-22T18:50:34.171Z,31.60
2022-08-22T18:52:37.670Z,31.75
2022-08-22T18:55:03.674Z,31.90
2022-08-22T18:57:22.819Z,31.46
2022-08-22T18:59:47.398Z,31.09
2022-08-22T19:02:20.694Z,31.34
2022-08-22T19:04:31.684Z,30.97
2022-08-22T19:07:01.161Z,30.70
2022-08-22T19:09:20.692Z,30.35
2022-08-22T19:11:25.427Z,30.24
2022-08-22T19:13:42.189Z,30.44
2022-08-22T19:16:19.929Z,30.54
2022-08-22T19:18:56.981Z,30.47
2022-08-22T19:21:41.269Z,29.76
2022-08-22T19:23:46.859Z,29.82
2022-08-22T19:26:20.737Z,29.77
2022-08-22T19:28:25.222Z,29.32
2022-08-22T19:30:44.531Z,28.59
2022-08-22T19:32:46.077Z,29.09
2022-08-22T19:34:47.978Z,29.25
2022-08-22T19:37:32.231Z,29.15
2022-08-22T19:39:41.443Z,29.03
2022-08-22T19:41:54.141Z,29.64
2022-08-22T19:43:55.910Z,29.38
2022-08-22T19:46:00.142Z,29.51
2022-08-22T19:48:14.720Z,29.53
2022-08-22T19:50:16.513Z,29.36
2022-08-22T20:01:04.412Z,29.47
2022-08-22T20:03:14.080Z,29.55
2022-08-22T20:05:45.391Z,29.84
2022-08-22T20:08:37.932Z,29.59
2022-08-22T20:10:51.309Z,28.97
2022-08-22T20:13:18.523Z,29.12
2022-08-22T20:15:24.849Z,29.61
2022-08-22T20:17:26.447Z,29.83
2022-08-22T20:20:16.310Z,30.14
2022-08-22T20:22:07.588Z,30.33
2022-08-22T20:24:16.630Z,30.53
2022-08-22T20:26:18.351Z,30.20
2022-08-22T20:28:29.641Z,30.15
2022-08-22T20:30:38.712Z,30.07
2022-08-22T20:32:47.924Z,30.19
2022-08-22T20:34:54.856Z,29.98
2022-08-22T20:37:23.331Z,29.96
2022-08-22T20:39:26.336Z,29.88
2022-08-22T20:41:43.428Z,29.86
2022-08-22T20:44:03.378Z,29.51
2022-08-22T20:46:29.209Z,29.00
2022-08-22T20:48:41.136Z,29.46
2022-08-22T20:50:43.147Z,29.21
2022-08-22T20:52:54.227Z,29.20
2022-08-22T20:55:01.208Z,29.32
2022-08-22T20:57:10.200Z,29.05
2022-08-22T20:59:24.387Z,28.90
2022-08-22T21:01:28.431Z,28.87
2022-08-22T21:03:50.707Z,29.26
2022-08-22T21:05:52.350Z,28.80
2022-08-22T21:08:12.346Z,28.83
2022-08-22T21:10:40.003Z,28.90
2022-08-22T21:12:41.755Z,28.80
2022-08-22T21:14:48.282Z,28.68
2022-08-22T21:16:50.284Z,28.70
2022-08-22T21:18:53.808Z,28.24
2022-08-22T21:21:17.253Z,28.05
2022-08-22T21:23:20.253Z,27.96
2022-08-22T21:25:22.144Z,28.47
2022-08-22T21:27:30.441Z,28.39
2022-08-22T21:29:34.971Z,28.31
2022-08-22T21:31:47.557Z,28.43
2022-08-22T21:33:52.181Z,27.90
2022-08-22T21:35:59.603Z,28.06
2022-08-22T21:38:02.147Z,28.33
2022-08-22T21:40:04.959Z,28.41
2022-08-22T21:42:06.541Z,28.44
2022-08-22T21:44:27.111Z,28.42
2022-08-22T21:46:29.128Z,28.44
2022-08-22T21:48:58.025Z,28.62
2022-08-22T21:51:21.348Z,28.50
2022-08-22T21:53:28.064Z,28.37
2022-08-22T21:55:35.518Z,28.18
2022-08-22T21:57:38.165Z,28.56
2022-08-22T21:59:59.129Z,28.27
2022-08-22T22:02:23.540Z,28.40
2022-08-22T22:04:29.055Z,28.30
2022-08-22T22:06:30.619Z,27.78
2022-08-22T22:08:32.947Z,27.94
2022-08-22T22:10:34.613Z,27.62
2022-08-22T22:12:40.760Z,27.43
2022-08-22T22:14:46.732Z,27.41
2022-08-22T22:16:48.360Z,27.49
2022-08-22T22:18:50.025Z,27.52
2022-08-22T22:20:53.421Z,28.22
2022-08-22T22:22:55.537Z,28.14
2022-08-22T22:24:57.169Z,27.86
2022-08-22T22:26:59.408Z,27.61
2022-08-22T22:29:02.748Z,26.83
2022-08-22T22:31:05.368Z,27.01
2022-08-22T22:33:06.981Z,27.03
2022-08-22T22:35:09.356Z,26.93
2022-08-22T22:37:15.668Z,26.61
2022-08-22T22:39:17.397Z,26.69
2022-08-22T22:41:21.267Z,26.74
2022-08-22T22:43:22.911Z,26.57
2022-08-22T22:45:24.702Z,27.08
2022-08-22T22:47:28.656Z,27.00
2022-08-22T22:49:32.181Z,27.01
2022-08-22T22:51:33.871Z,27.39
2022-08-22T22:53:40.411Z,27.45
2022-08-22T22:55:44.434Z,27.48
2022-08-22T22:57:46.055Z,27.54
2022-08-22T22:59:48.260Z,27.37
2022-08-22T23:02:21.757Z,27.24
2022-08-22T23:04:23.418Z,27.23
2022-08-22T23:06:27.533Z,27.05
2022-08-22T23:08:29.165Z,27.14
2022-08-22T23:10:32.320Z,26.88
2022-08-22T23:12:36.060Z,26.21
2022-08-22T23:14:37.672Z,26.38
2022-08-22T23:16:40.473Z,26.11
2022-08-22T23:18:43.182Z,26.81
2022-08-22T23:20:44.762Z,27.07
2022-08-22T23:22:46.874Z,27.03
2022-08-22T23:24:49.416Z,26.87
2022-08-22T23:26:51.185Z,26.73
2022-08-22T23:28:52.818Z,26.40
2022-08-22T23:30:57.643Z,26.38
2022-08-22T23:32:59.293Z,26.27
2022-08-22T23:35:00.985Z,25.99
2022-08-22T23:37:06.569Z,25.71
2022-08-22T23:39:09.876Z,25.24
2022-08-22T23:41:13.401Z,24.86
2022-08-22T23:43:14.997Z,24.79
2022-08-22T23:45:16.681Z,24.72
2022-08-22T23:47:18.293Z,24.82
2022-08-22T23:49:20.352Z,24.72
2022-08-22T23:51:24.854Z,24.50
2022-08-22T23:53:26.504Z,24.45
2022-08-22T23:55:28.082Z,24.72
2022-08-22T23:57:29.784Z,24.90
2022-08-22T23:59:34.201Z,24.57
